Terminal Aerodrome Forecast
Issued by NWS Wilmington, NC

Home | Current Version | Previous Version | Text Only | Print | Product List | Glossary On
Versions: 1 2 3 4 5 6 7 8 9 10 11 12
000
FTUS42 KILM 131120
TAFILM
TAF
KILM 131120Z 1312/1412 31010KT P6SM SKC
      TEMPO 1313/1316 30013G19KT
     FM132100 23007KT P6SM SKC
     FM140500 23010G19KT P6SM FEW120 SCT250=

USA.gov is the U.S. government's official web portal to all federal, state and local government web resources and services.